Belgica — ORGQ — position and weather

sailwx.info

Track history (hours):
 
Tides and Currents Weather Stations Pressure Air Temp Water Temp Dewpoint Dewpoint Depression Visibility Wind Speed Wind Dir Waves Ship Positions

Oceanographic research ship Belgica (Belgium)

Detailed information on ship capabilities available from University of Delaware's Ocean Information Center.

Last reported at 2019-Jun-16 14:29 UTC. Time now 2019-Jun-16 14:50 UTC.
Position N 49°44' W 004°01'.

Length 51 m; draft 4.7 m.

MMSI: 205218000.

Date/timePositionNaut miles runAvg speedWind from/ knotsBaromVisibWave heightAir tempDewpointWater temp
2019-Jun-16 14:29N 49°44' W 004°01'5 9.8
2019-Jun-16 13:59N 49°44' W 004°08'268 5.3
2019-Jun-14 11:04N 51°29' W 010°37'1 9.0
2019-Jun-14 11:00N 51°29' W 010°36'5 9.1
2019-Jun-14 10:29N 51°30' W 010°29'6 9.2
2019-Jun-14 09:47N 51°30' W 010°18'3 9.1
2019-Jun-14 09:30N 51°31' W 010°14'5 9.5
2019-Jun-14 08:59N 51°32' W 010°07'4 9.3
2019-Jun-14 08:30N 51°33' W 009°60'5 9.1
2019-Jun-14 08:00N 51°35' W 009°53'4 8.9
2019-Jun-14 07:30N 51°37' W 009°47'4 8.7
2019-Jun-14 07:00N 51°39' W 009°40'4 8.7
2019-Jun-14 06:30N 51°41' W 009°34'2 4.1
2019-Jun-14 06:00N 51°43' W 009°32'0 0.1
2019-Jun-14 05:30N 51°43' W 009°32'0 0.0
2019-Jun-14 05:00N 51°43' W 009°32'0 0.0
2019-Jun-14 04:30N 51°43' W 009°32'0 0.0
2019-Jun-14 04:00N 51°43' W 009°32'0 0.0
2019-Jun-14 03:30N 51°43' W 009°32'0 0.0
2019-Jun-14 03:00N 51°43' W 009°32'0 0.0
2019-Jun-14 02:30N 51°43' W 009°32'0 0.0
2019-Jun-14 02:00N 51°43' W 009°32'0 0.0
2019-Jun-14 01:30N 51°43' W 009°32'0 0.0
2019-Jun-14 01:00N 51°43' W 009°32'0 0.0
2019-Jun-14 00:30N 51°43' W 009°32'0 0.0
2019-Jun-14 00:00N 51°43' W 009°32'0 0.0
2019-Jun-13 23:30N 51°43' W 009°32'0 0.0
2019-Jun-13 23:00N 51°43' W 009°32'0 0.0
2019-Jun-13 22:30N 51°43' W 009°32'0 0.0
2019-Jun-13 21:59N 51°43' W 009°32'0 0.0
2019-Jun-13 21:26N 51°43' W 009°32'0 0.0
2019-Jun-13 20:57N 51°43' W 009°32'0 0.0
2019-Jun-13 20:29N 51°43' W 009°32'0 0.0
2019-Jun-13 19:56N 51°43' W 009°32'0 0.0
2019-Jun-13 19:29N 51°43' W 009°32'0 0.0
2019-Jun-13 18:59N 51°43' W 009°32'0 0.0
2019-Jun-13 18:29N 51°43' W 009°32'0 0.0
2019-Jun-13 17:59N 51°43' W 009°32'0 0.0
2019-Jun-13 17:29N 51°43' W 009°32'0 0.0
2019-Jun-13 16:59N 51°43' W 009°32'0 0.0
2019-Jun-13 16:29N 51°43' W 009°32'0 0.0
2019-Jun-13 15:59N 51°43' W 009°32'0 0.0
2019-Jun-13 15:29N 51°43' W 009°32'0 0.0
2019-Jun-13 14:59N 51°43' W 009°32'0 0.0
2019-Jun-13 14:29N 51°43' W 009°32'0 0.0
2019-Jun-13 13:59N 51°43' W 009°32'0 0.0
2019-Jun-13 13:29N 51°43' W 009°32'0 0.0
2019-Jun-13 12:59N 51°43' W 009°32'0 0.0
2019-Jun-13 12:29N 51°43' W 009°32'0 0.0
2019-Jun-13 11:59N 51°43' W 009°32'0 0.0
2019-Jun-13 11:29N 51°43' W 009°32'0 0.0
2019-Jun-13 10:59N 51°43' W 009°32'0 0.0
2019-Jun-13 10:29N 51°43' W 009°32'0 0.0
2019-Jun-13 09:59N 51°43' W 009°32'0 0.0
2019-Jun-13 09:29N 51°43' W 009°32'0 0.0
2019-Jun-13 08:59N 51°43' W 009°32'0 0.0
2019-Jun-13 08:29N 51°43' W 009°32'0 0.0
2019-Jun-13 07:59N 51°43' W 009°32'0 0.0
2019-Jun-13 07:29N 51°43' W 009°32'0 0.0
2019-Jun-13 06:59N 51°43' W 009°32'0 0.0
2019-Jun-13 06:29N 51°43' W 009°32'0 0.0
2019-Jun-13 05:59N 51°43' W 009°32'0 0.0
2019-Jun-13 05:29N 51°43' W 009°32'0 0.0
2019-Jun-13 04:59N 51°43' W 009°32'0 0.0
2019-Jun-13 04:29N 51°43' W 009°32'0 0.0
2019-Jun-13 03:59N 51°43' W 009°32'0 0.0
2019-Jun-13 03:29N 51°43' W 009°32'0 0.0
2019-Jun-13 02:59N 51°43' W 009°32'0 0.0
2019-Jun-13 02:29N 51°43' W 009°32'0 0.0
2019-Jun-13 01:59N 51°43' W 009°32'0 0.0
2019-Jun-13 01:29N 51°43' W 009°32'0 0.0
2019-Jun-13 00:59N 51°43' W 009°32'0 0.0
2019-Jun-13 00:29N 51°43' W 009°32'0 0.0
2019-Jun-12 23:59N 51°43' W 009°32'0 0.0
2019-Jun-12 23:29N 51°43' W 009°32'0 0.0
2019-Jun-12 22:59N 51°43' W 009°32'0 0.0
2019-Jun-12 22:29N 51°43' W 009°32'0 0.0
2019-Jun-12 21:59N 51°43' W 009°32'0 0.0
2019-Jun-12 21:29N 51°43' W 009°32'0 0.0
2019-Jun-12 20:59N 51°43' W 009°32'0 0.0
2019-Jun-12 20:29N 51°43' W 009°32'0 0.0
2019-Jun-12 19:59N 51°43' W 009°32'0 0.0
2019-Jun-12 19:29N 51°43' W 009°32'0 0.0
2019-Jun-12 18:59N 51°43' W 009°32'0 0.0
2019-Jun-12 18:29N 51°43' W 009°32'0 0.0
2019-Jun-12 17:59N 51°43' W 009°32'0 0.0
2019-Jun-12 17:29N 51°43' W 009°32'0 0.0
2019-Jun-12 16:59N 51°43' W 009°32'0 0.0
2019-Jun-12 16:29N 51°43' W 009°32'0 0.0
2019-Jun-12 15:59N 51°43' W 009°32'0 0.0
2019-Jun-12 15:29N 51°43' W 009°32'0 0.0
2019-Jun-12 14:59N 51°43' W 009°32'0 0.0
2019-Jun-12 14:29N 51°43' W 009°32'0 0.0
2019-Jun-12 13:59N 51°43' W 009°32'0 0.0
2019-Jun-12 13:29N 51°43' W 009°32'0 0.1
2019-Jun-12 12:59N 51°43' W 009°32'0 0.0
2019-Jun-12 12:29N 51°43' W 009°32'0 0.0
2019-Jun-12 11:59N 51°43' W 009°32'0 0.0
2019-Jun-12 11:29N 51°43' W 009°32'0 0.0
2019-Jun-12 10:58N 51°43' W 009°32'0 0.0
2019-Jun-12 10:28N 51°43' W 009°32'0 0.0
2019-Jun-12 09:58N 51°43' W 009°32'0 0.0
2019-Jun-12 09:25N 51°43' W 009°32'0 0.0
2019-Jun-12 08:59N 51°43' W 009°32'0 0.0
2019-Jun-12 08:25N 51°43' W 009°32'0 0.1
2019-Jun-12 07:59N 51°43' W 009°32'0 0.0
2019-Jun-12 07:28N 51°43' W 009°32'0 0.0
2019-Jun-12 06:58N 51°43' W 009°32'0 0.0
2019-Jun-12 06:28N 51°43' W 009°32'0 0.1
2019-Jun-12 05:58N 51°43' W 009°32'0 0.0
2019-Jun-12 05:28N 51°43' W 009°32'0 0.0
2019-Jun-12 04:58N 51°43' W 009°32'0 0.0
2019-Jun-12 04:28N 51°43' W 009°32'0 0.0
2019-Jun-12 03:58N 51°43' W 009°32'0 0.0
2019-Jun-12 03:28N 51°43' W 009°32'0 0.0
2019-Jun-12 02:58N 51°43' W 009°32'0 0.0
2019-Jun-12 02:28N 51°43' W 009°32'0 0.0
2019-Jun-12 01:28N 51°43' W 009°32'0 0.0
2019-Jun-12 00:58N 51°43' W 009°32'0 0.0
2019-Jun-12 00:28N 51°43' W 009°32'0 0.0
2019-Jun-11 23:58N 51°43' W 009°32'0 0.0
2019-Jun-11 23:28N 51°43' W 009°32'0 0.0
2019-Jun-11 22:58N 51°43' W 009°32'0 0.0
2019-Jun-11 22:28N 51°43' W 009°32'0 0.0
2019-Jun-11 21:58N 51°43' W 009°32'0 0.0
2019-Jun-11 21:28N 51°43' W 009°32'0 0.0
2019-Jun-11 20:58N 51°43' W 009°32'0 0.0
2019-Jun-11 20:28N 51°43' W 009°32'0 0.0
2019-Jun-11 19:58N 51°43' W 009°32'0 0.0
2019-Jun-11 19:28N 51°43' W 009°32'0 0.0
2019-Jun-11 18:58N 51°43' W 009°32'0 0.0
2019-Jun-11 18:28N 51°43' W 009°32'0 0.0
2019-Jun-11 17:58N 51°43' W 009°32'0 0.0
2019-Jun-11 17:28N 51°43' W 009°32'0 0.0
2019-Jun-11 16:58N 51°43' W 009°32'0 0.0
2019-Jun-11 16:28N 51°43' W 009°32'0 0.0
2019-Jun-11 15:58N 51°43' W 009°32'0 0.0
2019-Jun-11 15:28N 51°43' W 009°32'0 0.0
2019-Jun-11 14:58N 51°43' W 009°32'0 0.0
2019-Jun-11 14:28N 51°43' W 009°32'0 0.0
2019-Jun-11 13:58N 51°43' W 009°32'0 0.0
2019-Jun-11 13:28N 51°43' W 009°32'0 0.0
2019-Jun-11 12:58N 51°43' W 009°32'0 0.0
2019-Jun-11 12:28N 51°43' W 009°32'0 0.1
2019-Jun-11 11:58N 51°43' W 009°32'0 0.0
2019-Jun-11 11:28N 51°43' W 009°32'0 0.0
2019-Jun-11 10:58N 51°43' W 009°32'0 0.0
2019-Jun-11 10:28N 51°43' W 009°32'0 0.0
2019-Jun-11 09:58N 51°43' W 009°32'0 0.1
2019-Jun-11 09:30N 51°43' W 009°32'2 3.2
2019-Jun-11 09:00N 51°41' W 009°34'5 9.4
2019-Jun-11 08:30N 51°39' W 009°40'5 9.4
2019-Jun-11 08:00N 51°37' W 009°47'5 9.5
2019-Jun-11 07:30N 51°35' W 009°54'5 9.2
2019-Jun-11 07:00N 51°33' W 010°00'4 8.8
2019-Jun-11 06:30N 51°31' W 010°07'4 8.9
2019-Jun-11 06:00N 51°31' W 010°14'5 9.2
2019-Jun-11 05:27N 51°30' W 010°22'4 9.2
2019-Jun-11 04:59N 51°29' W 010°28'  
2019-Jun-09 00:16N 51°28' W 010°43'2 9.2
2019-Jun-09 00:00N 51°28' W 010°39'5 8.9
2019-Jun-08 23:30N 51°29' W 010°32'4 8.7
2019-Jun-08 22:59N 51°30' W 010°25'4 8.4
2019-Jun-08 22:30N 51°30' W 010°18'4 8.5
2019-Jun-08 22:00N 51°32' W 010°12'4 8.3
2019-Jun-08 21:30N 51°33' W 010°05'4 8.2
2019-Jun-08 21:00N 51°34' W 009°59'4 8.5
2019-Jun-08 20:30N 51°35' W 009°53'4 8.8
2019-Jun-08 20:00N 51°37' W 009°46'2 2.9
2019-Jun-08 19:27N 51°39' W 009°47'0 0.1
2019-Jun-08 19:00N 51°39' W 009°46'0 0.0
2019-Jun-08 18:24N 51°39' W 009°46'0 0.0
2019-Jun-08 17:57N 51°39' W 009°46'0 0.0
2019-Jun-08 17:27N 51°39' W 009°46'0 0.0
2019-Jun-08 17:00N 51°39' W 009°46'0 0.0
2019-Jun-08 16:30N 51°39' W 009°46'0 0.0
2019-Jun-08 16:00N 51°39' W 009°46'0 0.0
2019-Jun-08 15:30N 51°39' W 009°46'0 0.0
2019-Jun-08 15:00N 51°39' W 009°46'0 0.0
2019-Jun-08 14:30N 51°39' W 009°46'0 0.0
2019-Jun-08 14:00N 51°39' W 009°46'0 0.0
2019-Jun-08 13:30N 51°39' W 009°46'0 0.0
2019-Jun-08 13:00N 51°39' W 009°46'0 0.0
2019-Jun-08 12:30N 51°39' W 009°46'0 0.0
2019-Jun-08 12:00N 51°39' W 009°46'0 0.0
2019-Jun-08 11:30N 51°39' W 009°46'0 0.0
2019-Jun-08 11:00N 51°39' W 009°46'0 0.0
2019-Jun-08 10:30N 51°39' W 009°46'0 0.0
2019-Jun-08 10:00N 51°39' W 009°46'0 0.0
2019-Jun-08 09:30N 51°39' W 009°46'0 0.0
2019-Jun-08 09:00N 51°39' W 009°46'0 0.0
2019-Jun-08 08:24N 51°39' W 009°46'0 0.0
2019-Jun-08 08:00N 51°39' W 009°46'0 0.0
2019-Jun-08 07:30N 51°39' W 009°46'0 0.0
2019-Jun-08 07:00N 51°39' W 009°46'0 0.0
2019-Jun-08 06:30N 51°39' W 009°46'0 0.0
2019-Jun-08 06:00N 51°39' W 009°46'0 0.0
2019-Jun-08 05:21N 51°39' W 009°46'0 0.0
2019-Jun-08 05:00N 51°39' W 009°46'0 0.0
2019-Jun-08 04:21N 51°39' W 009°46'0 0.0
2019-Jun-08 03:51N 51°39' W 009°46'0 0.0
2019-Jun-08 03:24N 51°39' W 009°46'0 0.0
2019-Jun-08 03:00N 51°39' W 009°46'0 0.0
2019-Jun-08 02:18N 51°39' W 009°46'0 0.0
2019-Jun-08 01:51N 51°39' W 009°46'0 0.0
2019-Jun-08 01:24N 51°39' W 009°46'0 0.0
2019-Jun-08 00:54N 51°39' W 009°46'0 0.0
2019-Jun-08 00:24N 51°39' W 009°46'0 0.0
2019-Jun-07 23:54N 51°39' W 009°46'0 0.0
2019-Jun-07 23:24N 51°39' W 009°46'0 0.0
2019-Jun-07 22:54N 51°39' W 009°46'0 0.0
2019-Jun-07 22:21N 51°39' W 009°46'0 0.0
2019-Jun-07 21:54N 51°39' W 009°46'0 0.0
2019-Jun-07 21:30N 51°39' W 009°46'0 0.0
2019-Jun-07 20:57N 51°39' W 009°46'0 0.0
2019-Jun-07 20:27N 51°39' W 009°47'0 0.0
2019-Jun-07 19:57N 51°39' W 009°47'0 0.0
2019-Jun-07 19:30N 51°39' W 009°46'0 0.0
2019-Jun-07 18:42N 51°39' W 009°47'0 0.0
2019-Jun-07 18:27N 51°39' W 009°46'0 0.1
2019-Jun-07 17:57N 51°39' W 009°47'0 0.0
2019-Jun-07 17:30N 51°39' W 009°47'0 0.0
2019-Jun-07 17:00N 51°39' W 009°46'0 0.0
2019-Jun-07 16:24N 51°39' W 009°47'0 0.0
2019-Jun-07 15:57N 51°39' W 009°47'0 0.1
2019-Jun-07 15:27N 51°39' W 009°47'0 0.1
2019-Jun-07 14:57N 51°39' W 009°46'0 0.0
2019-Jun-07 14:15N 51°39' W 009°46'0 0.0
2019-Jun-07 13:57N 51°39' W 009°47'0 0.1
2019-Jun-07 13:30N 51°39' W 009°47'0 0.0
2019-Jun-07 12:57N 51°39' W 009°47'0 0.0
2019-Jun-07 12:29N 51°39' W 009°47'0 0.0
2019-Jun-07 12:00N 51°39' W 009°47'0 0.0
2019-Jun-07 11:29N 51°39' W 009°47'0 0.0
2019-Jun-07 11:00N 51°39' W 009°47'0 0.0
2019-Jun-07 10:30N 51°39' W 009°47'0 0.0
2019-Jun-07 10:00N 51°39' W 009°47'0 0.1
2019-Jun-07 09:30N 51°39' W 009°47'1 2.7
2019-Jun-07 09:00N 51°38' W 009°45'4 8.8
2019-Jun-07 08:30N 51°36' W 009°51'5 9.2
2019-Jun-07 08:00N 51°34' W 009°58'5 9.3
2019-Jun-07 07:30N 51°32' W 010°05'5 9.4
2019-Jun-07 07:00N 51°31' W 010°12'5 9.5
2019-Jun-07 06:30N 51°30' W 010°20'5 9.6
2019-Jun-07 06:00N 51°29' W 010°27'5 9.4
2019-Jun-07 05:29N 51°28' W 010°35'  
Track history (hours):
 
Tides and Currents Weather Stations Pressure Air Temp Water Temp Dewpoint Dewpoint Depression Visibility Wind Speed Wind Dir Waves Ship Positions

Oceanographic research ship Belgica (Belgium)

Detailed information on ship capabilities available from University of Delaware's Ocean Information Center.

Last reported at 2019-Jun-16 14:29 UTC. Time now 2019-Jun-16 14:50 UTC.
Position N 49°44' W 004°01'.

Length 51 m; draft 4.7 m.

MMSI: 205218000.

Date/timePositionNaut miles runAvg speedWind from/ knotsBaromVisibWave heightAir tempDewpointWater temp
2019-Jun-16 14:29N 49°44' W 004°01'5 9.8
2019-Jun-16 13:59N 49°44' W 004°08'268 5.3
2019-Jun-14 11:04N 51°29' W 010°37'1 9.0
2019-Jun-14 11:00N 51°29' W 010°36'5 9.1
2019-Jun-14 10:29N 51°30' W 010°29'6 9.2
2019-Jun-14 09:47N 51°30' W 010°18'3 9.1
2019-Jun-14 09:30N 51°31' W 010°14'5 9.5
2019-Jun-14 08:59N 51°32' W 010°07'4 9.3
2019-Jun-14 08:30N 51°33' W 009°60'5 9.1
2019-Jun-14 08:00N 51°35' W 009°53'4 8.9
2019-Jun-14 07:30N 51°37' W 009°47'4 8.7
2019-Jun-14 07:00N 51°39' W 009°40'4 8.7
2019-Jun-14 06:30N 51°41' W 009°34'2 4.1
2019-Jun-14 06:00N 51°43' W 009°32'0 0.1
2019-Jun-14 05:30N 51°43' W 009°32'0 0.0
2019-Jun-14 05:00N 51°43' W 009°32'0 0.0
2019-Jun-14 04:30N 51°43' W 009°32'0 0.0
2019-Jun-14 04:00N 51°43' W 009°32'0 0.0
2019-Jun-14 03:30N 51°43' W 009°32'0 0.0
2019-Jun-14 03:00N 51°43' W 009°32'0 0.0
2019-Jun-14 02:30N 51°43' W 009°32'0 0.0
2019-Jun-14 02:00N 51°43' W 009°32'0 0.0
2019-Jun-14 01:30N 51°43' W 009°32'0 0.0
2019-Jun-14 01:00N 51°43' W 009°32'0 0.0
2019-Jun-14 00:30N 51°43' W 009°32'0 0.0
2019-Jun-14 00:00N 51°43' W 009°32'0 0.0
2019-Jun-13 23:30N 51°43' W 009°32'0 0.0
2019-Jun-13 23:00N 51°43' W 009°32'0 0.0
2019-Jun-13 22:30N 51°43' W 009°32'0 0.0
2019-Jun-13 21:59N 51°43' W 009°32'0 0.0
2019-Jun-13 21:26N 51°43' W 009°32'0 0.0
2019-Jun-13 20:57N 51°43' W 009°32'0 0.0
2019-Jun-13 20:29N 51°43' W 009°32'0 0.0
2019-Jun-13 19:56N 51°43' W 009°32'0 0.0
2019-Jun-13 19:29N 51°43' W 009°32'0 0.0
2019-Jun-13 18:59N 51°43' W 009°32'0 0.0
2019-Jun-13 18:29N 51°43' W 009°32'0 0.0
2019-Jun-13 17:59N 51°43' W 009°32'0 0.0
2019-Jun-13 17:29N 51°43' W 009°32'0 0.0
2019-Jun-13 16:59N 51°43' W 009°32'0 0.0
2019-Jun-13 16:29N 51°43' W 009°32'0 0.0
2019-Jun-13 15:59N 51°43' W 009°32'0 0.0
2019-Jun-13 15:29N 51°43' W 009°32'0 0.0
2019-Jun-13 14:59N 51°43' W 009°32'0 0.0
2019-Jun-13 14:29N 51°43' W 009°32'0 0.0
2019-Jun-13 13:59N 51°43' W 009°32'0 0.0
2019-Jun-13 13:29N 51°43' W 009°32'0 0.0
2019-Jun-13 12:59N 51°43' W 009°32'0 0.0
2019-Jun-13 12:29N 51°43' W 009°32'0 0.0
2019-Jun-13 11:59N 51°43' W 009°32'0 0.0
2019-Jun-13 11:29N 51°43' W 009°32'0 0.0
2019-Jun-13 10:59N 51°43' W 009°32'0 0.0
2019-Jun-13 10:29N 51°43' W 009°32'0 0.0
2019-Jun-13 09:59N 51°43' W 009°32'0 0.0
2019-Jun-13 09:29N 51°43' W 009°32'0 0.0
2019-Jun-13 08:59N 51°43' W 009°32'0 0.0
2019-Jun-13 08:29N 51°43' W 009°32'0 0.0
2019-Jun-13 07:59N 51°43' W 009°32'0 0.0
2019-Jun-13 07:29N 51°43' W 009°32'0 0.0
2019-Jun-13 06:59N 51°43' W 009°32'0 0.0
2019-Jun-13 06:29N 51°43' W 009°32'0 0.0
2019-Jun-13 05:59N 51°43' W 009°32'0 0.0
2019-Jun-13 05:29N 51°43' W 009°32'0 0.0
2019-Jun-13 04:59N 51°43' W 009°32'0 0.0
2019-Jun-13 04:29N 51°43' W 009°32'0 0.0
2019-Jun-13 03:59N 51°43' W 009°32'0 0.0
2019-Jun-13 03:29N 51°43' W 009°32'0 0.0
2019-Jun-13 02:59N 51°43' W 009°32'0 0.0
2019-Jun-13 02:29N 51°43' W 009°32'0 0.0
2019-Jun-13 01:59N 51°43' W 009°32'0 0.0
2019-Jun-13 01:29N 51°43' W 009°32'0 0.0
2019-Jun-13 00:59N 51°43' W 009°32'0 0.0
2019-Jun-13 00:29N 51°43' W 009°32'0 0.0
2019-Jun-12 23:59N 51°43' W 009°32'0 0.0
2019-Jun-12 23:29N 51°43' W 009°32'0 0.0
2019-Jun-12 22:59N 51°43' W 009°32'0 0.0
2019-Jun-12 22:29N 51°43' W 009°32'0 0.0
2019-Jun-12 21:59N 51°43' W 009°32'0 0.0
2019-Jun-12 21:29N 51°43' W 009°32'0 0.0
2019-Jun-12 20:59N 51°43' W 009°32'0 0.0
2019-Jun-12 20:29N 51°43' W 009°32'0 0.0
2019-Jun-12 19:59N 51°43' W 009°32'0 0.0
2019-Jun-12 19:29N 51°43' W 009°32'0 0.0
2019-Jun-12 18:59N 51°43' W 009°32'0 0.0
2019-Jun-12 18:29N 51°43' W 009°32'0 0.0
2019-Jun-12 17:59N 51°43' W 009°32'0 0.0
2019-Jun-12 17:29N 51°43' W 009°32'0 0.0
2019-Jun-12 16:59N 51°43' W 009°32'0 0.0
2019-Jun-12 16:29N 51°43' W 009°32'0 0.0
2019-Jun-12 15:59N 51°43' W 009°32'0 0.0
2019-Jun-12 15:29N 51°43' W 009°32'0 0.0
2019-Jun-12 14:59N 51°43' W 009°32'0 0.0
2019-Jun-12 14:29N 51°43' W 009°32'0 0.0
2019-Jun-12 13:59N 51°43' W 009°32'0 0.0
2019-Jun-12 13:29N 51°43' W 009°32'0 0.1
2019-Jun-12 12:59N 51°43' W 009°32'0 0.0
2019-Jun-12 12:29N 51°43' W 009°32'0 0.0
2019-Jun-12 11:59N 51°43' W 009°32'0 0.0
2019-Jun-12 11:29N 51°43' W 009°32'0 0.0
2019-Jun-12 10:58N 51°43' W 009°32'0 0.0
2019-Jun-12 10:28N 51°43' W 009°32'0 0.0
2019-Jun-12 09:58N 51°43' W 009°32'0 0.0
2019-Jun-12 09:25N 51°43' W 009°32'0 0.0
2019-Jun-12 08:59N 51°43' W 009°32'0 0.0
2019-Jun-12 08:25N 51°43' W 009°32'0 0.1
2019-Jun-12 07:59N 51°43' W 009°32'0 0.0
2019-Jun-12 07:28N 51°43' W 009°32'0 0.0
2019-Jun-12 06:58N 51°43' W 009°32'0 0.0
2019-Jun-12 06:28N 51°43' W 009°32'0 0.1
2019-Jun-12 05:58N 51°43' W 009°32'0 0.0
2019-Jun-12 05:28N 51°43' W 009°32'0 0.0
2019-Jun-12 04:58N 51°43' W 009°32'0 0.0
2019-Jun-12 04:28N 51°43' W 009°32'0 0.0
2019-Jun-12 03:58N 51°43' W 009°32'0 0.0
2019-Jun-12 03:28N 51°43' W 009°32'0 0.0
2019-Jun-12 02:58N 51°43' W 009°32'0 0.0
2019-Jun-12 02:28N 51°43' W 009°32'0 0.0
2019-Jun-12 01:28N 51°43' W 009°32'0 0.0
2019-Jun-12 00:58N 51°43' W 009°32'0 0.0
2019-Jun-12 00:28N 51°43' W 009°32'0 0.0
2019-Jun-11 23:58N 51°43' W 009°32'0 0.0
2019-Jun-11 23:28N 51°43' W 009°32'0 0.0
2019-Jun-11 22:58N 51°43' W 009°32'0 0.0
2019-Jun-11 22:28N 51°43' W 009°32'0 0.0
2019-Jun-11 21:58N 51°43' W 009°32'0 0.0
2019-Jun-11 21:28N 51°43' W 009°32'0 0.0
2019-Jun-11 20:58N 51°43' W 009°32'0 0.0
2019-Jun-11 20:28N 51°43' W 009°32'0 0.0
2019-Jun-11 19:58N 51°43' W 009°32'0 0.0
2019-Jun-11 19:28N 51°43' W 009°32'0 0.0
2019-Jun-11 18:58N 51°43' W 009°32'0 0.0
2019-Jun-11 18:28N 51°43' W 009°32'0 0.0
2019-Jun-11 17:58N 51°43' W 009°32'0 0.0
2019-Jun-11 17:28N 51°43' W 009°32'0 0.0
2019-Jun-11 16:58N 51°43' W 009°32'0 0.0
2019-Jun-11 16:28N 51°43' W 009°32'0 0.0
2019-Jun-11 15:58N 51°43' W 009°32'0 0.0
2019-Jun-11 15:28N 51°43' W 009°32'0 0.0
2019-Jun-11 14:58N 51°43' W 009°32'0 0.0
2019-Jun-11 14:28N 51°43' W 009°32'0 0.0
2019-Jun-11 13:58N 51°43' W 009°32'0 0.0
2019-Jun-11 13:28N 51°43' W 009°32'0 0.0
2019-Jun-11 12:58N 51°43' W 009°32'0 0.0
2019-Jun-11 12:28N 51°43' W 009°32'0 0.1
2019-Jun-11 11:58N 51°43' W 009°32'0 0.0
2019-Jun-11 11:28N 51°43' W 009°32'0 0.0
2019-Jun-11 10:58N 51°43' W 009°32'0 0.0
2019-Jun-11 10:28N 51°43' W 009°32'0 0.0
2019-Jun-11 09:58N 51°43' W 009°32'0 0.1
2019-Jun-11 09:30N 51°43' W 009°32'2 3.2
2019-Jun-11 09:00N 51°41' W 009°34'5 9.4
2019-Jun-11 08:30N 51°39' W 009°40'5 9.4
2019-Jun-11 08:00N 51°37' W 009°47'5 9.5
2019-Jun-11 07:30N 51°35' W 009°54'5 9.2
2019-Jun-11 07:00N 51°33' W 010°00'4 8.8
2019-Jun-11 06:30N 51°31' W 010°07'4 8.9
2019-Jun-11 06:00N 51°31' W 010°14'5 9.2
2019-Jun-11 05:27N 51°30' W 010°22'4 9.2
2019-Jun-11 04:59N 51°29' W 010°28'  
2019-Jun-09 00:16N 51°28' W 010°43'2 9.2
2019-Jun-09 00:00N 51°28' W 010°39'5 8.9
2019-Jun-08 23:30N 51°29' W 010°32'4 8.7
2019-Jun-08 22:59N 51°30' W 010°25'4 8.4
2019-Jun-08 22:30N 51°30' W 010°18'4 8.5
2019-Jun-08 22:00N 51°32' W 010°12'4 8.3
2019-Jun-08 21:30N 51°33' W 010°05'4 8.2
2019-Jun-08 21:00N 51°34' W 009°59'4 8.5
2019-Jun-08 20:30N 51°35' W 009°53'4 8.8
2019-Jun-08 20:00N 51°37' W 009°46'2 2.9
2019-Jun-08 19:27N 51°39' W 009°47'0 0.1
2019-Jun-08 19:00N 51°39' W 009°46'0 0.0
2019-Jun-08 18:24N 51°39' W 009°46'0 0.0
2019-Jun-08 17:57N 51°39' W 009°46'0 0.0
2019-Jun-08 17:27N 51°39' W 009°46'0 0.0
2019-Jun-08 17:00N 51°39' W 009°46'0 0.0
2019-Jun-08 16:30N 51°39' W 009°46'0 0.0
2019-Jun-08 16:00N 51°39' W 009°46'0 0.0
2019-Jun-08 15:30N 51°39' W 009°46'0 0.0
2019-Jun-08 15:00N 51°39' W 009°46'0 0.0
2019-Jun-08 14:30N 51°39' W 009°46'0 0.0
2019-Jun-08 14:00N 51°39' W 009°46'0 0.0
2019-Jun-08 13:30N 51°39' W 009°46'0 0.0
2019-Jun-08 13:00N 51°39' W 009°46'0 0.0
2019-Jun-08 12:30N 51°39' W 009°46'0 0.0
2019-Jun-08 12:00N 51°39' W 009°46'0 0.0
2019-Jun-08 11:30N 51°39' W 009°46'0 0.0
2019-Jun-08 11:00N 51°39' W 009°46'0 0.0
2019-Jun-08 10:30N 51°39' W 009°46'0 0.0
2019-Jun-08 10:00N 51°39' W 009°46'0 0.0
2019-Jun-08 09:30N 51°39' W 009°46'0 0.0
2019-Jun-08 09:00N 51°39' W 009°46'0 0.0
2019-Jun-08 08:24N 51°39' W 009°46'0 0.0
2019-Jun-08 08:00N 51°39' W 009°46'0 0.0
2019-Jun-08 07:30N 51°39' W 009°46'0 0.0
2019-Jun-08 07:00N 51°39' W 009°46'0 0.0
2019-Jun-08 06:30N 51°39' W 009°46'0 0.0
2019-Jun-08 06:00N 51°39' W 009°46'0 0.0
2019-Jun-08 05:21N 51°39' W 009°46'0 0.0
2019-Jun-08 05:00N 51°39' W 009°46'0 0.0
2019-Jun-08 04:21N 51°39' W 009°46'0 0.0
2019-Jun-08 03:51N 51°39' W 009°46'0 0.0
2019-Jun-08 03:24N 51°39' W 009°46'0 0.0
2019-Jun-08 03:00N 51°39' W 009°46'0 0.0
2019-Jun-08 02:18N 51°39' W 009°46'0 0.0
2019-Jun-08 01:51N 51°39' W 009°46'0 0.0
2019-Jun-08 01:24N 51°39' W 009°46'0 0.0
2019-Jun-08 00:54N 51°39' W 009°46'0 0.0
2019-Jun-08 00:24N 51°39' W 009°46'0 0.0
2019-Jun-07 23:54N 51°39' W 009°46'0 0.0
2019-Jun-07 23:24N 51°39' W 009°46'0 0.0
2019-Jun-07 22:54N 51°39' W 009°46'0 0.0
2019-Jun-07 22:21N 51°39' W 009°46'0 0.0
2019-Jun-07 21:54N 51°39' W 009°46'0 0.0
2019-Jun-07 21:30N 51°39' W 009°46'0 0.0
2019-Jun-07 20:57N 51°39' W 009°46'0 0.0
2019-Jun-07 20:27N 51°39' W 009°47'0 0.0
2019-Jun-07 19:57N 51°39' W 009°47'0 0.0
2019-Jun-07 19:30N 51°39' W 009°46'0 0.0
2019-Jun-07 18:42N 51°39' W 009°47'0 0.0
2019-Jun-07 18:27N 51°39' W 009°46'0 0.1
2019-Jun-07 17:57N 51°39' W 009°47'0 0.0
2019-Jun-07 17:30N 51°39' W 009°47'0 0.0
2019-Jun-07 17:00N 51°39' W 009°46'0 0.0
2019-Jun-07 16:24N 51°39' W 009°47'0 0.0
2019-Jun-07 15:57N 51°39' W 009°47'0 0.1
2019-Jun-07 15:27N 51°39' W 009°47'0 0.1
2019-Jun-07 14:57N 51°39' W 009°46'0 0.0
2019-Jun-07 14:15N 51°39' W 009°46'0 0.0
2019-Jun-07 13:57N 51°39' W 009°47'0 0.1
2019-Jun-07 13:30N 51°39' W 009°47'0 0.0
2019-Jun-07 12:57N 51°39' W 009°47'0 0.0
2019-Jun-07 12:29N 51°39' W 009°47'0 0.0
2019-Jun-07 12:00N 51°39' W 009°47'0 0.0
2019-Jun-07 11:29N 51°39' W 009°47'0 0.0
2019-Jun-07 11:00N 51°39' W 009°47'0 0.0
2019-Jun-07 10:30N 51°39' W 009°47'0 0.0
2019-Jun-07 10:00N 51°39' W 009°47'0 0.1
2019-Jun-07 09:30N 51°39' W 009°47'1 2.7
2019-Jun-07 09:00N 51°38' W 009°45'4 8.8
2019-Jun-07 08:30N 51°36' W 009°51'5 9.2
2019-Jun-07 08:00N 51°34' W 009°58'5 9.3
2019-Jun-07 07:30N 51°32' W 010°05'5 9.4
2019-Jun-07 07:00N 51°31' W 010°12'5 9.5
2019-Jun-07 06:30N 51°30' W 010°20'5 9.6
2019-Jun-07 06:00N 51°29' W 010°27'5 9.4
2019-Jun-07 05:29N 51°28' W 010°35'  

Dump ship's entire track history